sensor_id;sensor_type;location;lat;lon;timestamp;pressure;altitude;pressure_sealevel;temperature;humidity
70458;BME280;57919;56.194;95.716;2023-03-14T00:03:31;100415.75;;;-3.56;73.96
70458;BME280;57919;56.194;95.716;2023-03-14T00:13:34;100419.28;;;-3.58;73.87
70458;BME280;57919;56.194;95.716;2023-03-14T00:23:37;100412.34;;;-3.68;74.13
70458;BME280;57919;56.194;95.716;2023-03-14T00:33:39;100424.47;;;-3.48;73.82
70458;BME280;57919;56.194;95.716;2023-03-14T00:43:42;100411.28;;;-3.51;73.81
70458;BME280;57919;56.194;95.716;2023-03-14T00:53:44;100420.94;;;-3.49;74.66
70458;BME280;57919;56.194;95.716;2023-03-14T01:03:47;100421.75;;;-3.42;75.54
70458;BME280;57919;56.194;95.716;2023-03-14T01:13:52;100422.56;;;-3.39;76.72
70458;BME280;57919;56.194;95.716;2023-03-14T01:23:57;100419.84;;;-3.31;76.86
70458;BME280;57919;56.194;95.716;2023-03-14T01:33:59;100430.03;;;-3.02;76.34
70458;BME280;57919;56.194;95.716;2023-03-14T01:44:02;100435.19;;;-2.91;76.43
70458;BME280;57919;56.194;95.716;2023-03-14T01:54:09;100435.72;;;-2.68;76.33
70458;BME280;57919;56.194;95.716;2023-03-14T02:04:14;100432.84;;;-2.53;75.89
70458;BME280;57919;56.194;95.716;2023-03-14T02:14:34;100441.25;;;-2.26;74.17
70458;BME280;57919;56.194;95.716;2023-03-14T02:35:28;100443.84;;;-1.74;72.54
70458;BME280;57919;56.194;95.716;2023-03-14T02:45:43;100444.84;;;-1.80;72.72
70458;BME280;57919;56.194;95.716;2023-03-14T02:55:50;100429.00;;;-1.84;72.50
70458;BME280;57919;56.194;95.716;2023-03-14T03:05:55;100440.97;;;-1.62;71.76
70458;BME280;57919;56.194;95.716;2023-03-14T03:15:57;100446.06;;;-1.51;71.63
70458;BME280;57919;56.194;95.716;2023-03-14T03:26:00;100450.19;;;-1.37;71.71
70458;BME280;57919;56.194;95.716;2023-03-14T03:36:02;100429.81;;;-1.35;71.45
70458;BME280;57919;56.194;95.716;2023-03-14T03:46:08;100430.25;;;-1.14;71.14
70458;BME280;57919;56.194;95.716;2023-03-14T03:56:10;100432.22;;;-0.82;70.20
70458;BME280;57919;56.194;95.716;2023-03-14T04:06:13;100412.75;;;-0.46;68.52
70458;BME280;57919;56.194;95.716;2023-03-14T04:16:21;100410.78;;;-0.38;68.11
70458;BME280;57919;56.194;95.716;2023-03-14T04:26:25;100414.66;;;-0.15;67.45
70458;BME280;57919;56.194;95.716;2023-03-14T04:36:27;100408.97;;;-0.02;66.51
70458;BME280;57919;56.194;95.716;2023-03-14T04:46:30;100417.56;;;0.10;67.22
70458;BME280;57919;56.194;95.716;2023-03-14T04:56:32;100402.97;;;0.24;66.84
70458;BME280;57919;56.194;95.716;2023-03-14T05:06:36;100406.78;;;0.14;66.85
70458;BME280;57919;56.194;95.716;2023-03-14T05:16:46;100396.31;;;0.08;66.27
70458;BME280;57919;56.194;95.716;2023-03-14T05:26:59;100383.47;;;0.24;65.63
70458;BME280;57919;56.194;95.716;2023-03-14T05:37:15;100379.72;;;0.91;64.19
70458;BME280;57919;56.194;95.716;2023-03-14T05:47:55;100377.88;;;1.23;64.39
70458;BME280;57919;56.194;95.716;2023-03-14T05:58:21;100380.09;;;1.37;63.52
70458;BME280;57919;56.194;95.716;2023-03-14T06:08:43;100376.34;;;1.95;62.11
70458;BME280;57919;56.194;95.716;2023-03-14T06:18:46;100372.41;;;1.80;62.08
70458;BME280;57919;56.194;95.716;2023-03-14T06:28:53;100344.78;;;1.56;62.00
70458;BME280;57919;56.194;95.716;2023-03-14T06:38:56;100362.78;;;1.22;62.65
70458;BME280;57919;56.194;95.716;2023-03-14T06:48:58;100353.03;;;0.93;63.91
70458;BME280;57919;56.194;95.716;2023-03-14T06:59:01;100362.84;;;0.63;64.91
70458;BME280;57919;56.194;95.716;2023-03-14T07:09:06;100343.72;;;0.49;66.36
70458;BME280;57919;56.194;95.716;2023-03-14T07:19:12;100344.78;;;1.02;66.24
70458;BME280;57919;56.194;95.716;2023-03-14T07:29:14;100326.38;;;0.94;65.64
70458;BME280;57919;56.194;95.716;2023-03-14T07:39:17;100317.97;;;0.79;66.76
70458;BME280;57919;56.194;95.716;2023-03-14T07:49:42;100309.19;;;1.31;66.79
70458;BME280;57919;56.194;95.716;2023-03-14T07:59:44;100315.59;;;1.25;65.01
70458;BME280;57919;56.194;95.716;2023-03-14T08:09:45;100336.44;;;1.13;65.25
70458;BME280;57919;56.194;95.716;2023-03-14T08:19:47;100332.34;;;0.73;66.23
70458;BME280;57919;56.194;95.716;2023-03-14T08:29:49;100317.53;;;0.64;65.96
70458;BME280;57919;56.194;95.716;2023-03-14T08:39:51;100330.00;;;0.62;65.79
70458;BME280;57919;56.194;95.716;2023-03-14T08:49:54;100328.94;;;0.39;66.50
70458;BME280;57919;56.194;95.716;2023-03-14T08:59:57;100331.09;;;0.26;65.46
70458;BME280;57919;56.194;95.716;2023-03-14T09:09:58;100346.41;;;-0.15;67.33
70458;BME280;57919;56.194;95.716;2023-03-14T09:20:02;100337.66;;;0.13;67.53
70458;BME280;57919;56.194;95.716;2023-03-14T09:30:08;100334.91;;;0.16;67.04
70458;BME280;57919;56.194;95.716;2023-03-14T09:40:14;100333.44;;;0.37;66.09
70458;BME280;57919;56.194;95.716;2023-03-14T09:50:18;100341.94;;;0.18;65.38
70458;BME280;57919;56.194;95.716;2023-03-14T10:00:23;100350.75;;;-0.46;66.65
70458;BME280;57919;56.194;95.716;2023-03-14T10:10:27;100351.63;;;-0.81;68.93
70458;BME280;57919;56.194;95.716;2023-03-14T10:20:40;100363.69;;;-0.68;68.48
70458;BME280;57919;56.194;95.716;2023-03-14T10:30:45;100370.00;;;-0.72;68.13
70458;BME280;57919;56.194;95.716;2023-03-14T10:40:49;100375.84;;;-0.95;68.79
70458;BME280;57919;56.194;95.716;2023-03-14T11:11:22;100386.06;;;-1.58;71.40
70458;BME280;57919;56.194;95.716;2023-03-14T11:32:02;100389.16;;;-1.80;71.57
70458;BME280;57919;56.194;95.716;2023-03-14T11:42:11;100383.06;;;-1.85;72.02
70458;BME280;57919;56.194;95.716;2023-03-14T12:02:51;100394.72;;;-1.93;70.99
70458;BME280;57919;56.194;95.716;2023-03-14T12:12:55;100410.19;;;-1.71;71.54
70458;BME280;57919;56.194;95.716;2023-03-14T12:23:03;100409.06;;;-2.05;71.66
70458;BME280;57919;56.194;95.716;2023-03-14T12:33:19;100429.81;;;-2.30;73.56
70458;BME280;57919;56.194;95.716;2023-03-14T12:43:30;100432.44;;;-2.29;73.71
70458;BME280;57919;56.194;95.716;2023-03-14T13:04:07;100442.56;;;-2.55;75.61
70458;BME280;57919;56.194;95.716;2023-03-14T13:14:10;100440.13;;;-2.67;76.41
70458;BME280;57919;56.194;95.716;2023-03-14T13:24:25;100441.06;;;-2.71;77.44
70458;BME280;57919;56.194;95.716;2023-03-14T13:34:34;100443.72;;;-2.73;77.57
70458;BME280;57919;56.194;95.716;2023-03-14T13:44:39;100445.53;;;-2.75;78.45
70458;BME280;57919;56.194;95.716;2023-03-14T13:54:41;100446.34;;;-2.71;78.16
70458;BME280;57919;56.194;95.716;2023-03-14T14:04:43;100438.50;;;-2.77;78.04
70458;BME280;57919;56.194;95.716;2023-03-14T14:14:49;100446.25;;;-2.65;77.08
70458;BME280;57919;56.194;95.716;2023-03-14T14:24:54;100432.97;;;-2.62;75.84
70458;BME280;57919;56.194;95.716;2023-03-14T14:34:58;100427.50;;;-2.51;75.22
70458;BME280;57919;56.194;95.716;2023-03-14T14:45:02;100433.53;;;-2.42;74.47
70458;BME280;57919;56.194;95.716;2023-03-14T14:55:19;100438.97;;;-2.51;74.35
70458;BME280;57919;56.194;95.716;2023-03-14T15:05:23;100438.16;;;-2.54;74.54
70458;BME280;57919;56.194;95.716;2023-03-14T15:15:26;100447.94;;;-2.58;74.13
70458;BME280;57919;56.194;95.716;2023-03-14T15:25:28;100439.03;;;-2.54;74.31
70458;BME280;57919;56.194;95.716;2023-03-14T15:35:30;100437.19;;;-2.49;74.45
70458;BME280;57919;56.194;95.716;2023-03-14T15:45:32;100432.84;;;-2.54;74.20
70458;BME280;57919;56.194;95.716;2023-03-14T15:55:34;100433.63;;;-2.48;74.15
70458;BME280;57919;56.194;95.716;2023-03-14T16:05:36;100420.38;;;-2.46;73.87
70458;BME280;57919;56.194;95.716;2023-03-14T16:15:38;100424.75;;;-2.45;73.61
70458;BME280;57919;56.194;95.716;2023-03-14T16:25:40;100424.81;;;-2.48;73.29
70458;BME280;57919;56.194;95.716;2023-03-14T16:35:58;100420.50;;;-2.55;73.38
70458;BME280;57919;56.194;95.716;2023-03-14T16:46:14;100427.75;;;-2.67;73.58
70458;BME280;57919;56.194;95.716;2023-03-14T16:56:20;100419.13;;;-2.81;73.38
70458;BME280;57919;56.194;95.716;2023-03-14T17:06:24;100423.63;;;-2.86;73.49
70458;BME280;57919;56.194;95.716;2023-03-14T17:16:27;100424.56;;;-2.90;73.58
70458;BME280;57919;56.194;95.716;2023-03-14T17:26:29;100413.97;;;-2.90;73.84
70458;BME280;57919;56.194;95.716;2023-03-14T17:36:31;100404.19;;;-2.85;74.09
70458;BME280;57919;56.194;95.716;2023-03-14T17:46:33;100404.34;;;-2.96;73.98
70458;BME280;57919;56.194;95.716;2023-03-14T17:56:35;100407.81;;;-2.90;74.31
70458;BME280;57919;56.194;95.716;2023-03-14T18:06:37;100408.56;;;-2.82;73.61
70458;BME280;57919;56.194;95.716;2023-03-14T18:16:39;100407.63;;;-2.78;74.11
70458;BME280;57919;56.194;95.716;2023-03-14T18:26:42;100406.84;;;-2.85;73.65
70458;BME280;57919;56.194;95.716;2023-03-14T18:36:44;100406.16;;;-2.99;74.51
70458;BME280;57919;56.194;95.716;2023-03-14T18:46:45;100418.53;;;-3.00;74.83
70458;BME280;57919;56.194;95.716;2023-03-14T18:56:48;100424.59;;;-2.91;74.57
70458;BME280;57919;56.194;95.716;2023-03-14T19:06:52;100420.09;;;-2.86;73.67
70458;BME280;57919;56.194;95.716;2023-03-14T19:16:54;100423.78;;;-2.97;74.15
70458;BME280;57919;56.194;95.716;2023-03-14T19:26:56;100428.31;;;-3.05;73.93
70458;BME280;57919;56.194;95.716;2023-03-14T19:36:58;100423.09;;;-3.11;75.09
70458;BME280;57919;56.194;95.716;2023-03-14T19:47:00;100426.03;;;-3.32;74.55
70458;BME280;57919;56.194;95.716;2023-03-14T19:57:02;100435.94;;;-3.51;75.69
70458;BME280;57919;56.194;95.716;2023-03-14T20:07:05;100428.19;;;-3.66;75.52
70458;BME280;57919;56.194;95.716;2023-03-14T20:17:07;100434.31;;;-3.63;75.75
70458;BME280;57919;56.194;95.716;2023-03-14T20:27:09;100438.81;;;-3.69;76.15
70458;BME280;57919;56.194;95.716;2023-03-14T20:37:11;100431.75;;;-3.70;75.89
70458;BME280;57919;56.194;95.716;2023-03-14T20:47:14;100430.09;;;-3.79;75.93
70458;BME280;57919;56.194;95.716;2023-03-14T20:57:16;100431.91;;;-3.82;76.16
70458;BME280;57919;56.194;95.716;2023-03-14T21:07:19;100434.56;;;-3.85;75.65
70458;BME280;57919;56.194;95.716;2023-03-14T21:17:21;100423.97;;;-3.84;76.08
70458;BME280;57919;56.194;95.716;2023-03-14T21:27:23;100433.75;;;-3.91;76.53
70458;BME280;57919;56.194;95.716;2023-03-14T21:37:25;100434.75;;;-4.04;77.08
70458;BME280;57919;56.194;95.716;2023-03-14T21:47:28;100449.66;;;-3.97;76.33
70458;BME280;57919;56.194;95.716;2023-03-14T21:57:30;100450.63;;;-4.07;77.21
70458;BME280;57919;56.194;95.716;2023-03-14T22:07:33;100460.44;;;-4.19;77.81
70458;BME280;57919;56.194;95.716;2023-03-14T22:17:35;100466.56;;;-4.14;77.53
70458;BME280;57919;56.194;95.716;2023-03-14T22:27:37;100468.38;;;-4.22;78.22
70458;BME280;57919;56.194;95.716;2023-03-14T22:37:39;100488.75;;;-4.37;78.43
70458;BME280;57919;56.194;95.716;2023-03-14T22:47:41;100488.84;;;-4.49;78.81
70458;BME280;57919;56.194;95.716;2023-03-14T22:57:43;100501.31;;;-4.75;79.00
70458;BME280;57919;56.194;95.716;2023-03-14T23:07:44;100506.63;;;-4.77;78.92
70458;BME280;57919;56.194;95.716;2023-03-14T23:17:46;100506.56;;;-4.68;78.12
70458;BME280;57919;56.194;95.716;2023-03-14T23:27:48;100520.59;;;-4.63;77.49
70458;BME280;57919;56.194;95.716;2023-03-14T23:37:50;100518.00;;;-4.66;77.30
70458;BME280;57919;56.194;95.716;2023-03-14T23:47:52;100513.56;;;-4.62;77.36
70458;BME280;57919;56.194;95.716;2023-03-14T23:57:54;100511.03;;;-4.77;77.14
